createdAt,value
2019-02-11T00:01:17.367Z,98840.72
2019-02-11T00:03:24.741Z,98844.27
2019-02-11T00:05:32.074Z,98833.83
2019-02-11T00:07:39.386Z,98848.01
2019-02-11T00:09:46.959Z,98843.80
2019-02-11T00:11:54.441Z,98831.88
2019-02-11T00:14:01.954Z,98835.25
2019-02-11T00:16:09.140Z,98838.48
2019-02-11T00:18:16.871Z,98827.58
2019-02-11T00:20:24.268Z,98824.02
2019-02-11T00:22:31.731Z,98821.71
2019-02-11T00:24:39.163Z,98821.49
2019-02-11T00:26:46.638Z,98819.80
2019-02-11T00:28:54.002Z,98814.42
2019-02-11T00:31:01.469Z,98807.50
2019-02-11T00:33:09.012Z,98807.42
2019-02-11T00:35:16.596Z,98806.73
2019-02-11T00:37:24.017Z,98810.88
2019-02-11T00:39:31.485Z,98806.78
2019-02-11T00:41:38.813Z,98806.41
2019-02-11T00:43:46.236Z,98796.27
2019-02-11T00:45:53.594Z,98808.02
2019-02-11T00:48:01.015Z,98792.56
2019-02-11T00:50:09.563Z,98795.10
2019-02-11T00:52:16.795Z,98793.88
2019-02-11T00:54:24.251Z,98795.65
2019-02-11T00:56:31.706Z,98789.88
2019-02-11T00:58:38.885Z,98787.81
2019-02-11T01:00:46.306Z,98790.64
2019-02-11T01:02:53.821Z,98793.11
2019-02-11T01:05:01.187Z,98776.06
2019-02-11T01:07:08.637Z,98776.97
2019-02-11T01:09:16.052Z,98768.56
2019-02-11T01:11:23.449Z,98761.20
2019-02-11T01:13:30.798Z,98759.85
2019-02-11T01:15:38.098Z,98762.61
2019-02-11T01:17:45.601Z,98765.01
2019-02-11T01:19:53.060Z,98770.01
2019-02-11T01:22:00.528Z,98766.45
2019-02-11T01:24:07.794Z,98767.55
2019-02-11T01:26:15.136Z,98766.09
2019-02-11T01:28:22.621Z,98763.63
2019-02-11T01:30:29.907Z,98758.04
2019-02-11T01:32:37.388Z,98760.03
2019-02-11T01:34:44.851Z,98755.29
2019-02-11T01:36:52.228Z,98750.06
2019-02-11T01:38:59.539Z,98755.07
2019-02-11T01:41:06.731Z,98753.25
2019-02-11T01:43:14.115Z,98746.98
2019-02-11T01:45:21.500Z,98738.61
2019-02-11T01:47:28.810Z,98738.67
2019-02-11T01:49:36.168Z,98732.95
2019-02-11T01:51:43.663Z,98729.03
2019-02-11T01:53:51.063Z,98730.34
2019-02-11T01:55:58.356Z,98738.89
2019-02-11T01:58:05.659Z,98728.05
2019-02-11T02:00:15.075Z,98723.92
2019-02-11T02:02:22.486Z,98723.38
2019-02-11T02:04:29.931Z,98719.96
2019-02-11T02:06:37.137Z,98721.66
2019-02-11T02:08:44.657Z,98728.80
2019-02-11T02:10:52.099Z,98718.98
2019-02-11T02:12:59.470Z,98724.73
2019-02-11T02:15:07.228Z,98725.67
2019-02-11T02:17:14.478Z,98724.73
2019-02-11T02:19:21.941Z,98726.68
2019-02-11T02:21:29.415Z,98718.92
2019-02-11T02:23:36.746Z,98718.70
2019-02-11T02:25:44.142Z,98721.36
2019-02-11T02:27:51.555Z,98715.23
2019-02-11T02:29:58.902Z,98713.94
2019-02-11T02:32:06.244Z,98710.20
2019-02-11T02:34:13.711Z,98708.56
2019-02-11T02:36:21.103Z,98703.89
2019-02-11T02:38:28.377Z,98702.69
2019-02-11T02:40:35.951Z,98706.06
2019-02-11T02:42:43.518Z,98700.91
2019-02-11T02:44:50.857Z,98701.97
2019-02-11T02:46:58.273Z,98699.66
2019-02-11T02:49:05.448Z,98699.77
2019-02-11T02:51:12.855Z,98692.55
2019-02-11T02:53:20.298Z,98689.69
2019-02-11T02:55:27.484Z,98688.86
2019-02-11T02:57:34.932Z,98692.84
2019-02-11T02:59:42.439Z,98687.38
2019-02-11T03:01:49.884Z,98684.84
2019-02-11T03:03:57.303Z,98694.66
2019-02-11T03:06:04.829Z,98690.97
2019-02-11T03:08:12.210Z,98691.98
2019-02-11T03:10:19.657Z,98677.45
2019-02-11T03:12:27.185Z,98686.98
2019-02-11T03:14:34.590Z,98681.30
2019-02-11T03:16:41.906Z,98676.55
2019-02-11T03:18:49.092Z,98673.69
2019-02-11T03:20:56.483Z,98683.11
2019-02-11T03:23:03.881Z,98675.72
2019-02-11T03:25:11.182Z,98676.22
2019-02-11T03:27:18.622Z,98680.42
2019-02-11T03:29:25.985Z,98682.09
2019-02-11T03:31:33.426Z,98680.79
2019-02-11T03:33:40.774Z,98682.09
2019-02-11T03:35:48.224Z,98679.41
2019-02-11T03:37:55.595Z,98679.62
2019-02-11T03:40:03.071Z,98688.47
2019-02-11T03:42:10.528Z,98684.38
2019-02-11T03:44:17.962Z,98692.05
2019-02-11T03:46:25.446Z,98686.50
2019-02-11T03:48:32.940Z,98681.13
2019-02-11T03:50:40.491Z,98671.98
2019-02-11T03:52:47.845Z,98680.47
2019-02-11T03:54:55.307Z,98670.89
2019-02-11T03:57:02.770Z,98674.80
2019-02-11T03:59:10.052Z,98677.49
2019-02-11T04:01:17.417Z,98670.97
2019-02-11T04:03:24.886Z,98669.32
2019-02-11T04:05:32.301Z,98664.09
2019-02-11T04:07:39.721Z,98668.20
2019-02-11T04:09:47.112Z,98659.34
2019-02-11T04:11:54.635Z,98660.66
2019-02-11T04:14:02.169Z,98652.34
2019-02-11T04:16:09.535Z,98653.37
2019-02-11T04:18:16.847Z,98650.39
2019-02-11T04:20:24.008Z,98650.83
2019-02-11T04:22:31.488Z,98647.78
2019-02-11T04:24:38.831Z,98645.17
2019-02-11T04:26:46.114Z,98645.72
2019-02-11T04:28:53.451Z,98653.55
2019-02-11T04:31:00.897Z,98652.53
2019-02-11T04:33:08.284Z,98650.00
2019-02-11T04:35:15.525Z,98658.66
2019-02-11T04:37:22.964Z,98649.58
2019-02-11T04:39:30.381Z,98655.98
2019-02-11T04:41:37.850Z,98661.20
2019-02-11T04:43:45.362Z,98663.62
2019-02-11T04:45:52.753Z,98659.89
2019-02-11T04:48:00.080Z,98661.02
2019-02-11T04:50:08.418Z,98659.81
2019-02-11T04:52:15.774Z,98666.42
2019-02-11T04:54:23.070Z,98667.94
2019-02-11T04:56:30.574Z,98669.24
2019-02-11T04:58:37.959Z,98665.33
2019-02-11T05:00:45.411Z,98677.08
2019-02-11T05:02:52.789Z,98664.38
2019-02-11T05:05:00.231Z,98670.16
2019-02-11T05:07:07.511Z,98664.23
2019-02-11T05:09:15.028Z,98666.58
2019-02-11T05:11:22.392Z,98668.98
2019-02-11T05:13:29.750Z,98676.94
2019-02-11T05:15:37.176Z,98677.02
2019-02-11T05:17:44.582Z,98675.27
2019-02-11T05:19:51.604Z,98674.07
2019-02-11T05:21:59.079Z,98678.08
2019-02-11T05:24:06.479Z,98686.94
2019-02-11T05:26:13.823Z,98684.33
2019-02-11T05:28:21.286Z,98684.06
2019-02-11T05:30:28.689Z,98686.67
2019-02-11T05:32:36.212Z,98686.67
2019-02-11T05:34:43.545Z,98678.28
2019-02-11T05:36:51.791Z,98668.23
2019-02-11T05:38:59.326Z,98673.81
2019-02-11T05:41:06.876Z,98678.68
2019-02-11T05:43:14.252Z,98672.31
2019-02-11T05:45:21.791Z,98674.48
2019-02-11T05:47:29.197Z,98680.74
2019-02-11T05:49:36.582Z,98680.27
2019-02-11T05:51:44.006Z,98681.94
2019-02-11T05:53:51.539Z,98680.19
2019-02-11T05:55:58.867Z,98678.12
2019-02-11T05:58:06.256Z,98680.35
2019-02-11T06:00:15.374Z,98689.47
2019-02-11T06:02:23.604Z,98693.00
2019-02-11T06:04:31.050Z,98685.01
2019-02-11T06:06:38.522Z,98689.63
2019-02-11T06:08:45.862Z,98679.77
2019-02-11T06:10:53.337Z,98688.72
2019-02-11T06:13:00.687Z,98687.59
2019-02-11T06:15:08.303Z,98685.42
2019-02-11T06:17:15.925Z,98688.15
2019-02-11T06:19:23.233Z,98703.06
2019-02-11T06:21:30.408Z,98710.43
2019-02-11T06:23:37.832Z,98710.50
2019-02-11T06:25:45.261Z,98702.05
2019-02-11T06:27:52.907Z,98707.19
2019-02-11T06:30:00.433Z,98718.34
2019-02-11T06:32:07.915Z,98728.03
2019-02-11T06:34:15.352Z,98734.95
2019-02-11T06:36:22.736Z,98737.09
2019-02-11T06:38:30.379Z,98747.55
2019-02-11T06:40:38.023Z,98736.08
2019-02-11T06:42:45.508Z,98745.22
2019-02-11T06:44:57.142Z,98753.60
2019-02-11T06:47:04.684Z,98758.67
2019-02-11T06:49:12.139Z,98745.17
2019-02-11T06:51:19.488Z,98752.91
2019-02-11T06:53:26.874Z,98742.45
2019-02-11T06:55:34.337Z,98744.88
2019-02-11T06:57:41.430Z,98763.09
2019-02-11T06:59:48.417Z,98769.70
2019-02-11T07:01:55.423Z,98766.62
2019-02-11T07:04:02.879Z,98771.03
2019-02-11T07:06:10.272Z,98766.36
2019-02-11T07:08:17.717Z,98763.38
2019-02-11T07:10:25.117Z,98764.50
2019-02-11T07:12:32.447Z,98770.56
2019-02-11T07:14:39.949Z,98768.34
2019-02-11T07:16:47.448Z,98773.09
2019-02-11T07:18:54.881Z,98771.80
2019-02-11T07:21:02.305Z,98769.03
2019-02-11T07:23:09.708Z,98775.01
2019-02-11T07:25:17.157Z,98775.84
2019-02-11T07:27:24.539Z,98773.13
2019-02-11T07:29:31.947Z,98774.48
2019-02-11T07:31:39.400Z,98776.08
2019-02-11T07:34:21.556Z,98777.31
2019-02-11T07:36:28.998Z,98777.95
2019-02-11T07:38:36.377Z,98772.02
2019-02-11T07:40:43.885Z,98777.53
2019-02-11T07:43:15.954Z,98778.01
2019-02-11T07:45:30.130Z,98777.14
2019-02-11T07:47:36.506Z,98779.96
2019-02-11T07:49:43.921Z,98778.50
2019-02-11T07:51:51.346Z,98775.88
2019-02-11T07:53:58.701Z,98773.70
2019-02-11T07:56:05.895Z,98779.61
2019-02-11T07:58:13.231Z,98783.93
2019-02-11T08:00:21.251Z,98784.09
2019-02-11T08:02:28.648Z,98778.50
2019-02-11T08:04:36.048Z,98779.25
2019-02-11T08:06:43.447Z,98787.45
2019-02-11T08:08:51.231Z,98788.77
2019-02-11T08:10:58.689Z,98792.33
2019-02-11T08:13:06.113Z,98804.92
2019-02-11T08:15:13.463Z,98801.84
2019-02-11T08:17:21.043Z,98810.08
2019-02-11T08:19:28.717Z,98809.41
2019-02-11T08:21:36.183Z,98808.99
2019-02-11T08:23:43.428Z,98808.80
2019-02-11T08:25:50.815Z,98809.56
2019-02-11T08:27:58.258Z,98805.64
2019-02-11T08:30:06.229Z,98820.22
2019-02-11T08:32:13.588Z,98818.16
2019-02-11T08:34:21.005Z,98818.64
2019-02-11T08:36:28.515Z,98821.34
2019-02-11T08:38:36.032Z,98821.94
2019-02-11T08:40:43.497Z,98822.48
2019-02-11T08:42:50.963Z,98830.70
2019-02-11T08:44:58.283Z,98831.25
2019-02-11T08:47:05.649Z,98837.34
2019-02-11T08:49:13.160Z,98836.48
2019-02-11T08:51:20.841Z,98836.59
2019-02-11T08:53:28.403Z,98836.48
2019-02-11T08:55:35.767Z,98841.71
2019-02-11T08:57:43.208Z,98846.23
2019-02-11T08:59:50.594Z,98849.89
2019-02-11T09:01:58.079Z,98846.17
2019-02-11T09:04:06.285Z,98845.62
2019-02-11T09:06:13.697Z,98851.49
2019-02-11T09:08:21.115Z,98848.24
2019-02-11T09:10:28.602Z,98852.05
2019-02-11T09:12:36.117Z,98852.05
2019-02-11T09:14:43.631Z,98856.08
2019-02-11T09:16:50.880Z,98855.61
2019-02-11T09:18:58.261Z,98864.77
2019-02-11T09:21:06.023Z,98865.05
2019-02-11T09:23:13.584Z,98868.34
2019-02-11T09:25:21.139Z,98873.02
2019-02-11T09:27:28.725Z,98875.92
2019-02-11T09:29:36.457Z,98873.03
2019-02-11T09:31:44.308Z,98867.61
2019-02-11T09:33:51.737Z,98874.94
2019-02-11T09:35:59.219Z,98874.39
2019-02-11T09:38:06.653Z,98881.09
2019-02-11T09:40:14.775Z,98874.20
2019-02-11T09:42:22.262Z,98879.83
2019-02-11T09:44:30.020Z,98887.09
2019-02-11T09:46:37.595Z,98892.80
2019-02-11T09:48:45.139Z,98894.03
2019-02-11T09:50:54.177Z,98891.02
2019-02-11T09:53:02.249Z,98892.33
2019-02-11T09:55:25.159Z,98891.21
2019-02-11T09:57:32.793Z,98887.09
2019-02-11T09:59:40.284Z,98889.16
2019-02-11T10:01:47.995Z,98888.44
2019-02-11T10:03:55.502Z,98886.09
2019-02-11T10:06:03.103Z,98876.73
2019-02-11T10:08:10.730Z,98869.72
2019-02-11T10:10:18.215Z,98868.61
2019-02-11T10:12:25.554Z,98876.85
2019-02-11T10:14:33.439Z,98882.64
2019-02-11T10:17:00.533Z,98883.95
2019-02-11T10:19:07.960Z,98882.45
2019-02-11T10:21:15.293Z,98887.55
2019-02-11T10:23:22.834Z,98893.82
2019-02-11T10:25:30.570Z,98889.25
2019-02-11T10:27:38.095Z,98889.45
2019-02-11T10:29:45.543Z,98892.05
2019-02-11T10:31:53.006Z,98876.61
2019-02-11T10:34:00.410Z,98881.39
2019-02-11T10:36:07.697Z,98889.14
2019-02-11T10:38:15.096Z,98886.73
2019-02-11T10:40:22.379Z,98899.07
2019-02-11T10:42:29.810Z,98899.70
2019-02-11T10:44:37.237Z,98896.20
2019-02-11T10:46:44.650Z,98905.24
2019-02-11T10:48:52.001Z,98911.37
2019-02-11T10:50:59.570Z,98908.30
2019-02-11T10:53:06.923Z,98907.45
2019-02-11T10:55:15.625Z,98913.95
2019-02-11T10:57:22.980Z,98911.33
2019-02-11T10:59:30.502Z,98916.38
2019-02-11T11:01:38.039Z,98921.90
2019-02-11T11:03:45.320Z,98921.42
2019-02-11T11:05:52.710Z,98926.29
2019-02-11T11:08:00.100Z,98930.61
2019-02-11T11:10:11.118Z,98930.50
2019-02-11T11:12:18.608Z,98930.71
2019-02-11T11:14:26.164Z,98925.20
2019-02-11T11:16:33.641Z,98932.87
2019-02-11T11:18:41.081Z,98934.17
2019-02-11T11:20:48.764Z,98933.23
2019-02-11T11:22:56.236Z,98932.02
2019-02-11T11:25:03.710Z,98927.41
2019-02-11T11:27:11.081Z,98933.87
2019-02-11T11:29:18.902Z,98938.19
2019-02-11T11:31:26.867Z,98943.72
2019-02-11T11:33:35.460Z,98945.50
2019-02-11T11:35:43.031Z,98939.13
2019-02-11T11:37:50.458Z,98938.77
2019-02-11T11:39:58.143Z,98939.77
2019-02-11T11:42:05.791Z,98945.96
2019-02-11T11:44:13.201Z,98944.94
2019-02-11T11:46:20.690Z,98951.22
2019-02-11T11:48:28.193Z,98954.95
2019-02-11T11:50:35.707Z,98949.87
2019-02-11T11:52:43.181Z,98957.38
2019-02-11T11:54:50.620Z,98949.52
2019-02-11T11:56:59.466Z,98957.46
2019-02-11T11:59:07.070Z,98962.82
2019-02-11T12:01:19.106Z,98962.16
2019-02-11T12:03:23.834Z,98958.86
2019-02-11T12:05:31.365Z,98962.16
2019-02-11T12:07:38.610Z,98965.97
2019-02-11T12:09:46.046Z,98961.88
2019-02-11T12:11:53.613Z,98971.80
2019-02-11T12:14:00.967Z,98973.86
2019-02-11T12:16:08.429Z,98974.02
2019-02-11T12:18:15.913Z,98979.45
2019-02-11T12:20:23.183Z,98990.09
2019-02-11T12:22:30.747Z,98989.54
2019-02-11T12:24:38.072Z,98989.06
2019-02-11T12:26:50.004Z,99008.93
2019-02-11T12:29:03.074Z,99027.50
2019-02-11T12:31:13.372Z,99022.41
2019-02-11T12:33:22.184Z,99031.67
2019-02-11T12:35:30.414Z,99033.70
2019-02-11T12:37:39.002Z,99035.19
2019-02-11T12:39:47.663Z,99040.19
2019-02-11T12:41:55.510Z,99042.30
2019-02-11T12:44:03.087Z,99037.13
2019-02-11T12:46:10.488Z,99042.07
2019-02-11T12:48:17.965Z,99051.22
2019-02-11T12:50:26.457Z,99051.30
2019-02-11T12:52:39.660Z,99054.63
2019-02-11T12:54:50.551Z,99061.23
2019-02-11T12:56:57.924Z,99059.62
2019-02-11T12:59:05.421Z,99065.03
2019-02-11T13:01:17.946Z,99070.81
2019-02-11T13:03:27.019Z,99084.08
2019-02-11T13:05:45.202Z,99091.09
2019-02-11T13:07:50.021Z,99088.11
2019-02-11T13:09:58.745Z,99091.39
2019-02-11T13:12:07.301Z,99094.41
2019-02-11T13:14:14.875Z,99100.88
2019-02-11T13:16:22.945Z,99100.11
2019-02-11T13:18:31.247Z,99107.47
2019-02-11T13:20:39.084Z,99113.77
2019-02-11T13:22:46.920Z,99116.31
2019-02-11T13:24:54.649Z,99118.83
2019-02-11T13:27:02.414Z,99125.83
2019-02-11T13:29:10.091Z,99129.75
2019-02-11T13:31:17.806Z,99134.36
2019-02-11T13:33:25.381Z,99140.72
2019-02-11T13:35:33.073Z,99146.63
2019-02-11T13:37:40.723Z,99152.53
2019-02-11T13:39:48.131Z,99160.66
2019-02-11T13:41:55.863Z,99162.09
2019-02-11T13:44:03.260Z,99167.59
2019-02-11T13:46:11.255Z,99168.03
2019-02-11T13:48:18.987Z,99174.55
2019-02-11T13:50:27.224Z,99169.49
2019-02-11T13:52:35.028Z,99176.61
2019-02-11T13:54:42.689Z,99180.05
2019-02-11T13:56:50.618Z,99180.39
2019-02-11T13:58:58.375Z,99185.95
2019-02-11T14:01:06.878Z,99193.35
2019-02-11T14:03:19.575Z,99197.52
2019-02-11T14:05:24.540Z,99201.65
2019-02-11T14:07:32.079Z,99209.88
2019-02-11T14:09:39.962Z,99212.12
2019-02-11T14:11:47.313Z,99208.21
2019-02-11T14:14:02.343Z,99213.68
2019-02-11T14:16:04.242Z,99216.84
2019-02-11T14:18:15.318Z,99212.34
2019-02-11T14:20:25.096Z,99231.61
2019-02-11T14:22:32.418Z,99229.77
2019-02-11T14:24:39.833Z,99237.72
2019-02-11T14:26:47.341Z,99246.33
2019-02-11T14:28:54.918Z,99250.92
2019-02-11T14:31:02.403Z,99257.72
2019-02-11T14:33:09.974Z,99254.20
2019-02-11T14:35:17.750Z,99259.02
2019-02-11T14:37:25.444Z,99272.85
2019-02-11T14:39:32.911Z,99271.97
2019-02-11T14:41:40.745Z,99280.25
2019-02-11T14:43:48.166Z,99283.23
2019-02-11T14:45:55.730Z,99286.00
2019-02-11T14:48:03.191Z,99289.19
2019-02-11T14:50:10.426Z,99296.34
2019-02-11T14:52:18.040Z,99297.97
2019-02-11T14:54:25.630Z,99306.09
2019-02-11T14:56:33.152Z,99312.52
2019-02-11T14:58:40.590Z,99315.13
2019-02-11T15:00:48.070Z,99318.67
2019-02-11T15:02:55.569Z,99323.74
2019-02-11T15:05:03.132Z,99327.34
2019-02-11T15:07:10.384Z,99333.02
2019-02-11T15:09:18.021Z,99341.63
2019-02-11T15:11:25.387Z,99343.05
2019-02-11T15:13:33.205Z,99341.11
2019-02-11T15:15:40.618Z,99347.84
2019-02-11T15:17:48.155Z,99352.97
2019-02-11T15:19:55.742Z,99360.16
2019-02-11T15:22:02.993Z,99360.80
2019-02-11T15:24:10.474Z,99361.32
2019-02-11T15:26:18.023Z,99373.59
2019-02-11T15:28:25.581Z,99373.59
2019-02-11T15:30:32.988Z,99380.00
2019-02-11T15:32:40.326Z,99375.56
2019-02-11T15:34:47.833Z,99384.70
2019-02-11T15:36:55.381Z,99390.95
2019-02-11T15:39:02.989Z,99389.70
2019-02-11T15:41:11.049Z,99385.22
2019-02-11T15:43:18.484Z,99393.94
2019-02-11T15:45:25.837Z,99396.42
2019-02-11T15:47:33.311Z,99403.54
2019-02-11T15:49:40.799Z,99404.64
2019-02-11T15:51:48.209Z,99407.50
2019-02-11T15:53:55.756Z,99417.16
2019-02-11T15:56:07.953Z,99425.75
2019-02-11T15:58:12.503Z,99417.36
2019-02-11T16:00:21.746Z,99429.56
2019-02-11T16:02:29.138Z,99436.28
2019-02-11T16:04:36.547Z,99434.98
2019-02-11T16:06:44.008Z,99436.74
2019-02-11T16:08:51.653Z,99448.08
2019-02-11T16:11:01.417Z,99451.09
2019-02-11T16:13:08.661Z,99446.77
2019-02-11T16:15:16.353Z,99453.02
2019-02-11T16:17:23.872Z,99453.08
2019-02-11T16:19:31.469Z,99457.77
2019-02-11T16:21:38.891Z,99465.55
2019-02-11T16:23:46.340Z,99467.64
2019-02-11T16:25:53.782Z,99468.43
2019-02-11T16:28:01.433Z,99473.78
2019-02-11T16:30:12.057Z,99477.56
2019-02-11T16:32:19.366Z,99479.80
2019-02-11T16:34:26.838Z,99479.52
2019-02-11T16:36:34.667Z,99488.23
2019-02-11T16:38:42.046Z,99491.91
2019-02-11T16:40:49.683Z,99491.39
2019-02-11T16:42:57.332Z,99499.09
2019-02-11T16:45:05.333Z,99497.53
2019-02-11T16:47:12.930Z,99512.22
2019-02-11T16:49:20.523Z,99509.69
2019-02-11T16:51:28.087Z,99514.39
2019-02-11T16:53:35.476Z,99515.81
2019-02-11T16:55:43.400Z,99530.30
2019-02-11T16:57:50.814Z,99533.37
2019-02-11T16:59:58.381Z,99534.63
2019-02-11T17:02:05.902Z,99533.70
2019-02-11T17:04:13.723Z,99530.19
2019-02-11T17:06:21.672Z,99539.78
2019-02-11T17:08:29.209Z,99534.11
2019-02-11T17:10:36.559Z,99537.23
2019-02-11T17:12:44.018Z,99529.27
2019-02-11T17:14:51.432Z,99534.95
2019-02-11T17:16:58.966Z,99539.98
2019-02-11T17:19:09.344Z,99533.34
2019-02-11T17:21:15.746Z,99536.84
2019-02-11T17:23:23.476Z,99543.78
2019-02-11T17:25:31.067Z,99556.10
2019-02-11T17:27:38.523Z,99566.49
2019-02-11T17:29:46.240Z,99570.12
2019-02-11T17:31:53.766Z,99578.34
2019-02-11T17:34:01.257Z,99575.35
2019-02-11T17:36:08.432Z,99584.54
2019-02-11T17:38:15.681Z,99585.84
2019-02-11T17:40:23.194Z,99592.05
2019-02-11T17:42:30.346Z,99604.16
2019-02-11T17:44:37.416Z,99605.88
2019-02-11T17:46:44.568Z,99602.53
2019-02-11T17:48:51.919Z,99611.16
2019-02-11T17:50:59.458Z,99607.52
2019-02-11T17:53:08.365Z,99616.60
2019-02-11T17:55:16.088Z,99617.63
2019-02-11T17:57:23.900Z,99625.00
2019-02-11T17:59:33.218Z,99617.73
2019-02-11T18:01:40.682Z,99617.34
2019-02-11T18:03:48.236Z,99625.92
2019-02-11T18:05:56.070Z,99619.83
2019-02-11T18:08:03.768Z,99621.41
2019-02-11T18:10:12.464Z,99624.02
2019-02-11T18:12:19.844Z,99631.06
2019-02-11T18:14:27.163Z,99634.55
2019-02-11T18:16:34.936Z,99639.40
2019-02-11T18:18:42.399Z,99634.59
2019-02-11T18:20:49.941Z,99644.91
2019-02-11T18:22:57.140Z,99647.64
2019-02-11T18:25:04.926Z,99650.72
2019-02-11T18:27:13.280Z,99654.83
2019-02-11T18:29:22.378Z,99659.77
2019-02-11T18:31:31.709Z,99661.87
2019-02-11T18:33:39.992Z,99668.63
2019-02-11T18:35:50.266Z,99671.23
2019-02-11T18:37:58.334Z,99671.19
2019-02-11T18:40:06.333Z,99675.84
2019-02-11T18:42:14.026Z,99678.22
2019-02-11T18:44:23.738Z,99682.55
2019-02-11T18:46:31.593Z,99697.42
2019-02-11T18:48:41.582Z,99691.95
2019-02-11T18:50:52.929Z,99699.62
2019-02-11T18:53:00.449Z,99697.75
2019-02-11T18:55:10.326Z,99702.51
2019-02-11T18:57:22.647Z,99705.58
2019-02-11T18:59:31.292Z,99701.28
2019-02-11T19:01:41.075Z,99711.64
2019-02-11T19:03:51.677Z,99713.03
2019-02-11T19:06:02.133Z,99719.30
2019-02-11T19:08:10.408Z,99727.55
2019-02-11T19:10:17.771Z,99719.35
2019-02-11T19:12:25.643Z,99730.16
2019-02-11T19:14:33.306Z,99723.73
2019-02-11T19:16:41.088Z,99730.70
2019-02-11T19:18:50.621Z,99730.70
2019-02-11T19:20:58.106Z,99741.23
2019-02-11T19:23:07.815Z,99744.09
2019-02-11T19:25:15.311Z,99752.30
2019-02-11T19:27:23.040Z,99751.41
2019-02-11T19:29:30.500Z,99760.46
2019-02-11T19:31:37.743Z,99758.81
2019-02-11T19:33:46.017Z,99757.52
2019-02-11T19:35:54.215Z,99766.14
2019-02-11T19:38:03.220Z,99761.34
2019-02-11T19:40:12.676Z,99764.03
2019-02-11T19:42:20.588Z,99760.33
2019-02-11T19:44:28.468Z,99766.05
2019-02-11T19:46:36.123Z,99773.88
2019-02-11T19:48:43.685Z,99764.36
2019-02-11T19:50:51.243Z,99781.86
2019-02-11T19:52:58.840Z,99773.08
2019-02-11T19:55:06.955Z,99784.01
2019-02-11T19:57:14.438Z,99786.28
2019-02-11T19:59:22.002Z,99786.23
2019-02-11T20:01:29.567Z,99790.65
2019-02-11T20:03:37.143Z,99796.91
2019-02-11T20:05:44.559Z,99800.78
2019-02-11T20:07:51.879Z,99804.89
2019-02-11T20:09:59.519Z,99806.55
2019-02-11T20:12:07.651Z,99818.36
2019-02-11T20:14:15.817Z,99815.33
2019-02-11T20:16:24.074Z,99828.78
2019-02-11T20:18:32.294Z,99825.45
2019-02-11T20:20:41.308Z,99831.05
2019-02-11T20:22:49.361Z,99832.27
2019-02-11T20:24:58.914Z,99834.84
2019-02-11T20:27:07.607Z,99830.08
2019-02-11T20:29:16.499Z,99838.70
2019-02-11T20:31:24.736Z,99837.29
2019-02-11T20:33:34.944Z,99844.69
2019-02-11T20:35:43.160Z,99847.11
2019-02-11T20:37:54.623Z,99842.46
2019-02-11T20:40:04.458Z,99850.36
2019-02-11T20:42:12.200Z,99854.77
2019-02-11T20:44:20.135Z,99851.45
2019-02-11T20:46:28.275Z,99865.19
2019-02-11T20:48:36.079Z,99868.47
2019-02-11T20:50:43.670Z,99872.45
2019-02-11T20:52:51.727Z,99871.14
2019-02-11T20:54:59.239Z,99875.83
2019-02-11T20:57:07.012Z,99872.80
2019-02-11T20:59:14.612Z,99882.45
2019-02-11T21:01:22.157Z,99881.64
2019-02-11T21:03:29.687Z,99893.33
2019-02-11T21:05:37.006Z,99887.27
2019-02-11T21:07:44.563Z,99883.02
2019-02-11T21:09:52.106Z,99891.64
2019-02-11T21:11:59.757Z,99887.59
2019-02-11T21:14:07.326Z,99890.69
2019-02-11T21:16:14.734Z,99898.96
2019-02-11T21:18:22.090Z,99903.85
2019-02-11T21:20:36.324Z,99907.09
2019-02-11T21:22:44.059Z,99912.16
2019-02-11T21:24:51.854Z,99919.87
2019-02-11T21:26:59.412Z,99920.27
2019-02-11T21:29:06.948Z,99926.66
2019-02-11T21:31:15.447Z,99927.24
2019-02-11T21:33:24.045Z,99933.98
2019-02-11T21:35:31.873Z,99929.10
2019-02-11T21:37:40.086Z,99932.87
2019-02-11T21:39:48.087Z,99936.48
2019-02-11T21:41:55.901Z,99940.50
2019-02-11T21:44:04.400Z,99941.27
2019-02-11T21:46:12.702Z,99946.45
2019-02-11T21:48:21.270Z,99941.38
2019-02-11T21:50:30.946Z,99944.34
2019-02-11T21:52:38.511Z,99958.33
2019-02-11T21:54:46.267Z,99960.84
2019-02-11T21:56:53.859Z,99953.22
2019-02-11T21:59:01.502Z,99959.11
2019-02-11T22:01:08.919Z,99962.14
2019-02-11T22:03:16.585Z,99960.84
2019-02-11T22:05:24.351Z,99965.00
2019-02-11T22:07:32.103Z,99971.02
2019-02-11T22:09:39.998Z,99967.09
2019-02-11T22:11:47.725Z,99972.42
2019-02-11T22:13:55.298Z,99967.61
2019-02-11T22:16:02.869Z,99968.22
2019-02-11T22:18:10.419Z,99969.00
2019-02-11T22:20:19.160Z,99975.74
2019-02-11T22:22:26.640Z,99975.74
2019-02-11T22:24:34.294Z,99982.51
2019-02-11T22:26:53.546Z,99979.62
2019-02-11T22:29:01.617Z,99984.86
2019-02-11T22:31:09.078Z,99997.16
2019-02-11T22:33:16.566Z,99998.16
2019-02-11T22:35:24.028Z,100002.36
2019-02-11T22:37:31.575Z,100001.40
2019-02-11T22:39:38.998Z,100007.57
2019-02-11T22:41:46.601Z,100009.20
2019-02-11T22:43:55.653Z,100011.14
2019-02-11T22:46:03.702Z,100014.92
2019-02-11T22:48:10.956Z,100011.28
2019-02-11T22:50:18.713Z,100011.14
2019-02-11T22:52:26.479Z,100017.66
2019-02-11T22:54:33.969Z,100017.38
2019-02-11T22:56:41.530Z,100020.62
2019-02-11T22:58:49.219Z,100028.46
2019-02-11T23:01:05.133Z,100032.66
2019-02-11T23:03:12.406Z,100034.42
2019-02-11T23:05:20.114Z,100031.75
2019-02-11T23:07:28.377Z,100037.09
2019-02-11T23:09:35.861Z,100030.30
2019-02-11T23:11:43.395Z,100036.23
2019-02-11T23:13:51.006Z,100038.81
2019-02-11T23:15:58.369Z,100034.91
2019-02-11T23:18:06.169Z,100042.30
2019-02-11T23:20:13.370Z,100049.13
2019-02-11T23:22:20.743Z,100050.13
2019-02-11T23:24:28.369Z,100054.01
2019-02-11T23:26:36.531Z,100049.23
2019-02-11T23:28:44.257Z,100052.70
2019-02-11T23:30:51.741Z,100059.64
2019-02-11T23:32:59.224Z,100056.48
2019-02-11T23:35:06.891Z,100060.45
2019-02-11T23:37:14.865Z,100066.66
2019-02-11T23:39:22.333Z,100069.14
2019-02-11T23:41:29.767Z,100058.73
2019-02-11T23:43:37.352Z,100066.15
2019-02-11T23:45:45.178Z,100069.88
2019-02-11T23:47:52.554Z,100063.15
2019-02-11T23:50:00.012Z,100068.81
2019-02-11T23:52:07.465Z,100070.45
2019-02-11T23:54:14.967Z,100076.14
2019-02-11T23:56:22.457Z,100077.05
2019-02-11T23:58:29.926Z,100069.66
